sensor_id;sensor_type;location;lat;lon;timestamp;temperature;humidity
31271;DHT22;17904;47.420;9.310;2022-09-25T00:01:00;10.20;99.90
31271;DHT22;17904;47.420;9.310;2022-09-25T00:03:28;10.20;99.90
31271;DHT22;17904;47.420;9.310;2022-09-25T00:06:03;10.20;99.90
31271;DHT22;17904;47.420;9.310;2022-09-25T00:08:31;10.10;99.90
31271;DHT22;17904;47.420;9.310;2022-09-25T00:10:58;10.10;99.90
31271;DHT22;17904;47.420;9.310;2022-09-25T00:13:25;10.10;99.90
31271;DHT22;17904;47.420;9.310;2022-09-25T00:15:54;10.00;99.90
31271;DHT22;17904;47.420;9.310;2022-09-25T00:18:22;10.00;99.90
31271;DHT22;17904;47.420;9.310;2022-09-25T00:21:10;9.90;99.90
31271;DHT22;17904;47.420;9.310;2022-09-25T00:23:39;9.90;99.90
31271;DHT22;17904;47.420;9.310;2022-09-25T00:26:07;9.80;99.90
31271;DHT22;17904;47.420;9.310;2022-09-25T00:28:36;9.80;99.90
31271;DHT22;17904;47.420;9.310;2022-09-25T00:31:04;9.80;99.90
31271;DHT22;17904;47.420;9.310;2022-09-25T00:33:32;9.80;99.90
31271;DHT22;17904;47.420;9.310;2022-09-25T00:36:05;9.80;99.90
31271;DHT22;17904;47.420;9.310;2022-09-25T00:38:34;9.70;99.90
31271;DHT22;17904;47.420;9.310;2022-09-25T00:41:02;9.70;99.90
31271;DHT22;17904;47.420;9.310;2022-09-25T00:43:39;9.70;99.90
31271;DHT22;17904;47.420;9.310;2022-09-25T00:46:27;9.70;99.90
31271;DHT22;17904;47.420;9.310;2022-09-25T00:49:02;9.70;99.90
31271;DHT22;17904;47.420;9.310;2022-09-25T00:51:39;9.70;99.90
31271;DHT22;17904;47.420;9.310;2022-09-25T00:54:15;9.60;99.90
31271;DHT22;17904;47.420;9.310;2022-09-25T00:56:46;9.60;99.90
31271;DHT22;17904;47.420;9.310;2022-09-25T00:59:17;9.60;99.90
31271;DHT22;17904;47.420;9.310;2022-09-25T01:01:45;9.60;99.90
31271;DHT22;17904;47.420;9.310;2022-09-25T01:04:13;9.60;99.90
31271;DHT22;17904;47.420;9.310;2022-09-25T01:06:40;9.60;99.90
31271;DHT22;17904;47.420;9.310;2022-09-25T01:09:07;9.60;99.90
31271;DHT22;17904;47.420;9.310;2022-09-25T01:11:34;9.60;99.90
31271;DHT22;17904;47.420;9.310;2022-09-25T01:14:02;9.60;99.90
31271;DHT22;17904;47.420;9.310;2022-09-25T01:21:41;9.60;99.90
31271;DHT22;17904;47.420;9.310;2022-09-25T01:27:45;9.60;99.90
31271;DHT22;17904;47.420;9.310;2022-09-25T01:30:16;9.60;99.90
31271;DHT22;17904;47.420;9.310;2022-09-25T01:32:54;9.60;99.90
31271;DHT22;17904;47.420;9.310;2022-09-25T01:35:48;9.50;99.90
31271;DHT22;17904;47.420;9.310;2022-09-25T01:38:33;9.60;99.90
31271;DHT22;17904;47.420;9.310;2022-09-25T01:46:00;9.60;99.90
31271;DHT22;17904;47.420;9.310;2022-09-25T01:48:30;9.60;99.90
31271;DHT22;17904;47.420;9.310;2022-09-25T01:51:28;9.60;99.90
31271;DHT22;17904;47.420;9.310;2022-09-25T01:54:01;9.60;99.90
31271;DHT22;17904;47.420;9.310;2022-09-25T01:56:35;9.70;99.90
31271;DHT22;17904;47.420;9.310;2022-09-25T01:59:15;9.70;99.90
31271;DHT22;17904;47.420;9.310;2022-09-25T02:01:44;9.70;99.90
31271;DHT22;17904;47.420;9.310;2022-09-25T02:04:15;9.70;99.90
31271;DHT22;17904;47.420;9.310;2022-09-25T02:06:46;9.70;99.90
31271;DHT22;17904;47.420;9.310;2022-09-25T02:09:21;9.70;99.90
31271;DHT22;17904;47.420;9.310;2022-09-25T02:11:55;9.70;99.90
31271;DHT22;17904;47.420;9.310;2022-09-25T02:17:04;9.80;99.90
31271;DHT22;17904;47.420;9.310;2022-09-25T02:19:32;9.80;99.90
31271;DHT22;17904;47.420;9.310;2022-09-25T02:22:20;9.70;99.90
31271;DHT22;17904;47.420;9.310;2022-09-25T02:24:56;9.70;99.90
31271;DHT22;17904;47.420;9.310;2022-09-25T02:27:27;9.70;99.90
31271;DHT22;17904;47.420;9.310;2022-09-25T02:29:55;9.70;99.90
31271;DHT22;17904;47.420;9.310;2022-09-25T02:32:29;9.70;99.90
31271;DHT22;17904;47.420;9.310;2022-09-25T02:34:57;9.70;99.90
31271;DHT22;17904;47.420;9.310;2022-09-25T02:37:25;9.70;99.90
31271;DHT22;17904;47.420;9.310;2022-09-25T02:39:55;9.70;99.90
31271;DHT22;17904;47.420;9.310;2022-09-25T02:42:48;9.70;99.90
31271;DHT22;17904;47.420;9.310;2022-09-25T02:45:46;9.70;99.90
31271;DHT22;17904;47.420;9.310;2022-09-25T02:53:45;9.70;99.90
31271;DHT22;17904;47.420;9.310;2022-09-25T02:56:23;9.70;99.90
31271;DHT22;17904;47.420;9.310;2022-09-25T02:58:57;9.70;99.90
31271;DHT22;17904;47.420;9.310;2022-09-25T03:01:27;9.70;99.90
31271;DHT22;17904;47.420;9.310;2022-09-25T03:03:57;9.60;99.90
31271;DHT22;17904;47.420;9.310;2022-09-25T03:06:26;9.70;99.90
31271;DHT22;17904;47.420;9.310;2022-09-25T03:08:54;9.60;99.90
31271;DHT22;17904;47.420;9.310;2022-09-25T03:11:23;9.70;99.90
31271;DHT22;17904;47.420;9.310;2022-09-25T03:13:56;9.70;99.90
31271;DHT22;17904;47.420;9.310;2022-09-25T03:16:44;9.70;99.90
31271;DHT22;17904;47.420;9.310;2022-09-25T03:19:13;9.60;99.90
31271;DHT22;17904;47.420;9.310;2022-09-25T03:21:39;9.60;99.90
31271;DHT22;17904;47.420;9.310;2022-09-25T03:24:06;9.60;99.90
31271;DHT22;17904;47.420;9.310;2022-09-25T03:26:33;9.60;99.90
31271;DHT22;17904;47.420;9.310;2022-09-25T03:29:00;9.60;99.90
31271;DHT22;17904;47.420;9.310;2022-09-25T03:31:29;9.50;99.90
31271;DHT22;17904;47.420;9.310;2022-09-25T03:33:56;9.50;99.90
31271;DHT22;17904;47.420;9.310;2022-09-25T03:36:25;9.50;99.90
31271;DHT22;17904;47.420;9.310;2022-09-25T03:38:54;9.50;99.90
31271;DHT22;17904;47.420;9.310;2022-09-25T03:41:31;9.50;99.90
31271;DHT22;17904;47.420;9.310;2022-09-25T03:43:59;9.50;99.90
31271;DHT22;17904;47.420;9.310;2022-09-25T03:46:28;9.40;99.90
31271;DHT22;17904;47.420;9.310;2022-09-25T03:48:57;9.50;99.90
31271;DHT22;17904;47.420;9.310;2022-09-25T03:51:25;9.50;99.90
31271;DHT22;17904;47.420;9.310;2022-09-25T03:53:53;9.40;99.90
31271;DHT22;17904;47.420;9.310;2022-09-25T03:56:23;9.40;99.90
31271;DHT22;17904;47.420;9.310;2022-09-25T03:58:50;9.40;99.90
31271;DHT22;17904;47.420;9.310;2022-09-25T04:01:20;9.40;99.90
31271;DHT22;17904;47.420;9.310;2022-09-25T04:03:48;9.40;99.90
31271;DHT22;17904;47.420;9.310;2022-09-25T04:06:17;9.40;99.90
31271;DHT22;17904;47.420;9.310;2022-09-25T04:08:45;9.40;99.90
31271;DHT22;17904;47.420;9.310;2022-09-25T04:11:17;9.30;99.90
31271;DHT22;17904;47.420;9.310;2022-09-25T04:13:45;9.30;99.90
31271;DHT22;17904;47.420;9.310;2022-09-25T04:16:13;9.20;99.90
31271;DHT22;17904;47.420;9.310;2022-09-25T04:18:40;9.20;99.90
31271;DHT22;17904;47.420;9.310;2022-09-25T04:21:11;9.20;99.90
31271;DHT22;17904;47.420;9.310;2022-09-25T04:23:38;9.20;99.90
31271;DHT22;17904;47.420;9.310;2022-09-25T04:26:06;9.10;99.90
31271;DHT22;17904;47.420;9.310;2022-09-25T04:28:34;9.10;99.90
31271;DHT22;17904;47.420;9.310;2022-09-25T04:31:01;9.10;99.90
31271;DHT22;17904;47.420;9.310;2022-09-25T04:33:29;9.10;99.90
31271;DHT22;17904;47.420;9.310;2022-09-25T04:36:16;9.00;99.90
31271;DHT22;17904;47.420;9.310;2022-09-25T04:38:45;9.00;99.90
31271;DHT22;17904;47.420;9.310;2022-09-25T04:41:15;9.00;99.90
31271;DHT22;17904;47.420;9.310;2022-09-25T04:43:43;8.90;99.90
31271;DHT22;17904;47.420;9.310;2022-09-25T04:46:11;8.90;99.90
31271;DHT22;17904;47.420;9.310;2022-09-25T04:48:47;8.90;99.90
31271;DHT22;17904;47.420;9.310;2022-09-25T04:51:14;8.90;99.90
31271;DHT22;17904;47.420;9.310;2022-09-25T04:53:40;8.90;99.90
31271;DHT22;17904;47.420;9.310;2022-09-25T04:56:08;8.80;99.90
31271;DHT22;17904;47.420;9.310;2022-09-25T04:58:46;8.90;99.90
31271;DHT22;17904;47.420;9.310;2022-09-25T05:01:15;8.90;99.90
31271;DHT22;17904;47.420;9.310;2022-09-25T05:03:47;8.90;99.90
31271;DHT22;17904;47.420;9.310;2022-09-25T05:06:16;8.90;99.90
31271;DHT22;17904;47.420;9.310;2022-09-25T05:08:43;8.90;99.90
31271;DHT22;17904;47.420;9.310;2022-09-25T05:11:09;8.90;99.90
31271;DHT22;17904;47.420;9.310;2022-09-25T05:13:37;8.90;99.90
31271;DHT22;17904;47.420;9.310;2022-09-25T05:16:04;8.90;99.90
31271;DHT22;17904;47.420;9.310;2022-09-25T05:18:31;9.00;99.90
31271;DHT22;17904;47.420;9.310;2022-09-25T05:21:05;9.00;99.90
31271;DHT22;17904;47.420;9.310;2022-09-25T05:23:32;9.00;99.90
31271;DHT22;17904;47.420;9.310;2022-09-25T05:25:59;9.00;99.90
31271;DHT22;17904;47.420;9.310;2022-09-25T05:28:30;9.10;99.90
31271;DHT22;17904;47.420;9.310;2022-09-25T05:30:58;9.10;99.90
31271;DHT22;17904;47.420;9.310;2022-09-25T05:33:29;9.20;99.90
31271;DHT22;17904;47.420;9.310;2022-09-25T05:36:03;9.20;99.90
31271;DHT22;17904;47.420;9.310;2022-09-25T05:38:32;9.20;99.90
31271;DHT22;17904;47.420;9.310;2022-09-25T05:41:01;9.30;99.90
31271;DHT22;17904;47.420;9.310;2022-09-25T05:43:31;9.30;99.90
31271;DHT22;17904;47.420;9.310;2022-09-25T05:45:58;9.40;99.90
31271;DHT22;17904;47.420;9.310;2022-09-25T05:48:26;9.40;99.90
31271;DHT22;17904;47.420;9.310;2022-09-25T05:50:55;9.40;99.90
31271;DHT22;17904;47.420;9.310;2022-09-25T05:53:23;9.50;99.90
31271;DHT22;17904;47.420;9.310;2022-09-25T05:55:54;9.50;99.90
31271;DHT22;17904;47.420;9.310;2022-09-25T05:58:21;9.50;99.90
31271;DHT22;17904;47.420;9.310;2022-09-25T06:00:49;9.60;99.90
31271;DHT22;17904;47.420;9.310;2022-09-25T06:03:16;9.60;99.90
31271;DHT22;17904;47.420;9.310;2022-09-25T06:05:43;9.70;99.90
31271;DHT22;17904;47.420;9.310;2022-09-25T06:08:13;9.70;99.90
31271;DHT22;17904;47.420;9.310;2022-09-25T06:10:40;9.80;99.90
31271;DHT22;17904;47.420;9.310;2022-09-25T06:13:07;9.80;99.90
31271;DHT22;17904;47.420;9.310;2022-09-25T06:15:38;9.80;99.90
31271;DHT22;17904;47.420;9.310;2022-09-25T06:18:08;9.90;99.90
31271;DHT22;17904;47.420;9.310;2022-09-25T06:20:35;9.90;99.90
31271;DHT22;17904;47.420;9.310;2022-09-25T06:23:02;9.90;99.90
31271;DHT22;17904;47.420;9.310;2022-09-25T06:25:30;10.00;99.90
31271;DHT22;17904;47.420;9.310;2022-09-25T06:28:03;10.00;99.90
31271;DHT22;17904;47.420;9.310;2022-09-25T06:30:32;10.00;99.90
31271;DHT22;17904;47.420;9.310;2022-09-25T06:33:08;10.00;99.90
31271;DHT22;17904;47.420;9.310;2022-09-25T06:35:42;10.00;99.90
31271;DHT22;17904;47.420;9.310;2022-09-25T06:38:10;10.00;99.90
31271;DHT22;17904;47.420;9.310;2022-09-25T06:40:38;10.10;99.90
31271;DHT22;17904;47.420;9.310;2022-09-25T06:43:12;10.10;99.90
31271;DHT22;17904;47.420;9.310;2022-09-25T06:45:39;10.10;99.90
31271;DHT22;17904;47.420;9.310;2022-09-25T06:48:13;10.20;99.90
31271;DHT22;17904;47.420;9.310;2022-09-25T06:50:44;10.30;99.90
31271;DHT22;17904;47.420;9.310;2022-09-25T06:53:13;10.30;99.90
31271;DHT22;17904;47.420;9.310;2022-09-25T06:55:41;10.40;99.90
31271;DHT22;17904;47.420;9.310;2022-09-25T06:58:13;10.40;99.90
31271;DHT22;17904;47.420;9.310;2022-09-25T07:00:45;10.50;99.90
31271;DHT22;17904;47.420;9.310;2022-09-25T07:03:13;10.50;99.90
31271;DHT22;17904;47.420;9.310;2022-09-25T07:05:59;10.60;99.90
31271;DHT22;17904;47.420;9.310;2022-09-25T07:08:26;10.60;99.90
31271;DHT22;17904;47.420;9.310;2022-09-25T07:10:55;10.60;99.90
31271;DHT22;17904;47.420;9.310;2022-09-25T07:13:25;10.70;99.90
31271;DHT22;17904;47.420;9.310;2022-09-25T07:15:57;10.70;99.90
31271;DHT22;17904;47.420;9.310;2022-09-25T07:18:26;10.70;99.90
31271;DHT22;17904;47.420;9.310;2022-09-25T07:21:09;10.70;99.90
31271;DHT22;17904;47.420;9.310;2022-09-25T07:23:37;10.80;99.90
31271;DHT22;17904;47.420;9.310;2022-09-25T07:28:33;10.80;99.90
31271;DHT22;17904;47.420;9.310;2022-09-25T07:31:13;10.90;99.90
31271;DHT22;17904;47.420;9.310;2022-09-25T07:33:41;10.90;99.90
31271;DHT22;17904;47.420;9.310;2022-09-25T07:36:08;11.00;99.90
31271;DHT22;17904;47.420;9.310;2022-09-25T07:38:35;11.00;99.90
31271;DHT22;17904;47.420;9.310;2022-09-25T07:41:08;11.10;99.90
31271;DHT22;17904;47.420;9.310;2022-09-25T07:43:36;11.20;99.90
31271;DHT22;17904;47.420;9.310;2022-09-25T07:46:05;11.20;99.90
31271;DHT22;17904;47.420;9.310;2022-09-25T07:48:32;11.30;99.90
31271;DHT22;17904;47.420;9.310;2022-09-25T07:51:01;11.30;99.90
31271;DHT22;17904;47.420;9.310;2022-09-25T07:53:28;11.30;99.90
31271;DHT22;17904;47.420;9.310;2022-09-25T07:55:57;11.40;99.90
31271;DHT22;17904;47.420;9.310;2022-09-25T07:58:32;11.40;99.90
31271;DHT22;17904;47.420;9.310;2022-09-25T08:01:03;11.50;99.90
31271;DHT22;17904;47.420;9.310;2022-09-25T08:03:31;11.60;99.90
31271;DHT22;17904;47.420;9.310;2022-09-25T08:05:59;11.70;99.90
31271;DHT22;17904;47.420;9.310;2022-09-25T08:08:27;11.80;99.90
31271;DHT22;17904;47.420;9.310;2022-09-25T08:11:06;11.90;99.90
31271;DHT22;17904;47.420;9.310;2022-09-25T08:13:34;12.10;99.90
31271;DHT22;17904;47.420;9.310;2022-09-25T08:16:02;12.20;99.90
31271;DHT22;17904;47.420;9.310;2022-09-25T08:18:29;12.30;99.90
31271;DHT22;17904;47.420;9.310;2022-09-25T08:21:03;12.40;99.90
31271;DHT22;17904;47.420;9.310;2022-09-25T08:23:31;12.50;99.90
31271;DHT22;17904;47.420;9.310;2022-09-25T08:25:58;12.50;99.90
31271;DHT22;17904;47.420;9.310;2022-09-25T08:28:26;12.50;99.90
31271;DHT22;17904;47.420;9.310;2022-09-25T08:30:53;12.50;99.90
31271;DHT22;17904;47.420;9.310;2022-09-25T08:33:20;12.50;99.90
31271;DHT22;17904;47.420;9.310;2022-09-25T08:36:01;12.50;99.90
31271;DHT22;17904;47.420;9.310;2022-09-25T08:38:28;12.50;99.90
31271;DHT22;17904;47.420;9.310;2022-09-25T08:41:04;12.50;99.90
31271;DHT22;17904;47.420;9.310;2022-09-25T08:43:39;12.50;99.90
31271;DHT22;17904;47.420;9.310;2022-09-25T08:46:38;12.50;99.90
31271;DHT22;17904;47.420;9.310;2022-09-25T08:49:23;12.50;99.90
31271;DHT22;17904;47.420;9.310;2022-09-25T08:51:53;12.50;99.90
31271;DHT22;17904;47.420;9.310;2022-09-25T08:54:26;12.60;99.90
31271;DHT22;17904;47.420;9.310;2022-09-25T08:56:57;12.60;99.90
31271;DHT22;17904;47.420;9.310;2022-09-25T08:59:29;12.70;99.90
31271;DHT22;17904;47.420;9.310;2022-09-25T09:02:18;12.70;99.90
31271;DHT22;17904;47.420;9.310;2022-09-25T09:04:56;12.60;99.90
31271;DHT22;17904;47.420;9.310;2022-09-25T09:10:36;12.70;99.90
31271;DHT22;17904;47.420;9.310;2022-09-25T09:13:30;12.70;99.90
31271;DHT22;17904;47.420;9.310;2022-09-25T09:16:01;12.70;99.90
31271;DHT22;17904;47.420;9.310;2022-09-25T09:18:36;12.70;99.90
31271;DHT22;17904;47.420;9.310;2022-09-25T09:23:57;12.70;99.90
31271;DHT22;17904;47.420;9.310;2022-09-25T09:34:55;12.70;99.90
31271;DHT22;17904;47.420;9.310;2022-09-25T09:43:57;12.90;99.90
31271;DHT22;17904;47.420;9.310;2022-09-25T09:49:20;13.10;99.90
31271;DHT22;17904;47.420;9.310;2022-09-25T09:51:54;13.10;99.90
31271;DHT22;17904;47.420;9.310;2022-09-25T09:57:47;13.20;99.90
31271;DHT22;17904;47.420;9.310;2022-09-25T10:00:18;13.20;99.90
31271;DHT22;17904;47.420;9.310;2022-09-25T10:02:57;13.30;99.90
31271;DHT22;17904;47.420;9.310;2022-09-25T10:05:35;13.30;99.90
31271;DHT22;17904;47.420;9.310;2022-09-25T10:08:03;13.30;99.90
31271;DHT22;17904;47.420;9.310;2022-09-25T10:10:39;13.30;99.90
31271;DHT22;17904;47.420;9.310;2022-09-25T10:13:18;13.30;99.90
31271;DHT22;17904;47.420;9.310;2022-09-25T10:15:58;13.40;99.90
31271;DHT22;17904;47.420;9.310;2022-09-25T10:23:48;13.60;99.90
31271;DHT22;17904;47.420;9.310;2022-09-25T10:26:30;13.60;99.90
31271;DHT22;17904;47.420;9.310;2022-09-25T10:28:59;13.70;99.90
31271;DHT22;17904;47.420;9.310;2022-09-25T10:31:35;13.80;99.90
31271;DHT22;17904;47.420;9.310;2022-09-25T10:36:46;14.00;99.90
31271;DHT22;17904;47.420;9.310;2022-09-25T10:42:38;14.20;99.90
31271;DHT22;17904;47.420;9.310;2022-09-25T10:45:26;14.20;99.90
31271;DHT22;17904;47.420;9.310;2022-09-25T10:47:54;14.20;99.90
31271;DHT22;17904;47.420;9.310;2022-09-25T10:50:40;14.20;99.90
31271;DHT22;17904;47.420;9.310;2022-09-25T10:53:24;14.20;99.90
31271;DHT22;17904;47.420;9.310;2022-09-25T10:56:01;14.20;99.90
31271;DHT22;17904;47.420;9.310;2022-09-25T10:58:38;14.20;99.90
31271;DHT22;17904;47.420;9.310;2022-09-25T11:01:07;14.20;99.90
31271;DHT22;17904;47.420;9.310;2022-09-25T11:03:52;14.30;99.90
31271;DHT22;17904;47.420;9.310;2022-09-25T11:06:26;14.30;99.90
31271;DHT22;17904;47.420;9.310;2022-09-25T11:11:41;14.40;99.90
31271;DHT22;17904;47.420;9.310;2022-09-25T11:14:19;14.40;99.90
31271;DHT22;17904;47.420;9.310;2022-09-25T11:19:29;14.50;99.90
31271;DHT22;17904;47.420;9.310;2022-09-25T11:22:15;14.40;99.90
31271;DHT22;17904;47.420;9.310;2022-09-25T11:30:39;14.50;99.90
31271;DHT22;17904;47.420;9.310;2022-09-25T11:38:57;14.60;99.90
31271;DHT22;17904;47.420;9.310;2022-09-25T11:42:04;14.70;99.90
31271;DHT22;17904;47.420;9.310;2022-09-25T11:45:03;14.70;99.90
31271;DHT22;17904;47.420;9.310;2022-09-25T11:47:50;14.60;99.90
31271;DHT22;17904;47.420;9.310;2022-09-25T11:50:30;14.60;99.90
31271;DHT22;17904;47.420;9.310;2022-09-25T11:53:24;14.60;99.90
31271;DHT22;17904;47.420;9.310;2022-09-25T11:56:45;14.50;99.90
31271;DHT22;17904;47.420;9.310;2022-09-25T11:59:09;14.40;99.90
31271;DHT22;17904;47.420;9.310;2022-09-25T12:07:33;14.20;99.90
31271;DHT22;17904;47.420;9.310;2022-09-25T12:10:16;14.10;99.90
31271;DHT22;17904;47.420;9.310;2022-09-25T12:12:54;13.90;99.90
31271;DHT22;17904;47.420;9.310;2022-09-25T12:21:06;13.60;99.90
31271;DHT22;17904;47.420;9.310;2022-09-25T12:29:30;13.20;99.90
31271;DHT22;17904;47.420;9.310;2022-09-25T12:38:08;12.90;99.90
31271;DHT22;17904;47.420;9.310;2022-09-25T12:40:52;12.80;99.90
31271;DHT22;17904;47.420;9.310;2022-09-25T12:46:12;12.70;99.90
31271;DHT22;17904;47.420;9.310;2022-09-25T12:49:12;12.70;99.90
31271;DHT22;17904;47.420;9.310;2022-09-25T12:51:46;12.70;99.90
31271;DHT22;17904;47.420;9.310;2022-09-25T12:54:35;12.70;99.90
31271;DHT22;17904;47.420;9.310;2022-09-25T12:57:26;12.70;99.90
31271;DHT22;17904;47.420;9.310;2022-09-25T13:00:00;12.70;99.90
31271;DHT22;17904;47.420;9.310;2022-09-25T13:02:41;12.60;99.90
31271;DHT22;17904;47.420;9.310;2022-09-25T13:05:22;12.60;99.90
31271;DHT22;17904;47.420;9.310;2022-09-25T13:11:01;12.60;99.90
31271;DHT22;17904;47.420;9.310;2022-09-25T13:13:36;12.60;99.90
31271;DHT22;17904;47.420;9.310;2022-09-25T13:16:05;12.60;99.90
31271;DHT22;17904;47.420;9.310;2022-09-25T13:18:34;12.60;99.90
31271;DHT22;17904;47.420;9.310;2022-09-25T13:21:21;12.50;99.90
31271;DHT22;17904;47.420;9.310;2022-09-25T13:23:50;12.50;99.90
31271;DHT22;17904;47.420;9.310;2022-09-25T13:26:21;12.40;99.90
31271;DHT22;17904;47.420;9.310;2022-09-25T13:29:06;12.40;99.90
31271;DHT22;17904;47.420;9.310;2022-09-25T13:31:42;12.40;99.90
31271;DHT22;17904;47.420;9.310;2022-09-25T13:34:15;12.40;99.90
31271;DHT22;17904;47.420;9.310;2022-09-25T13:36:50;12.40;99.90
31271;DHT22;17904;47.420;9.310;2022-09-25T14:03:04;12.30;99.90
31271;DHT22;17904;47.420;9.310;2022-09-25T14:05:33;12.20;99.90
31271;DHT22;17904;47.420;9.310;2022-09-25T14:11:08;12.30;99.90
31271;DHT22;17904;47.420;9.310;2022-09-25T14:13:36;12.20;99.90
31271;DHT22;17904;47.420;9.310;2022-09-25T14:16:33;12.20;99.90
31271;DHT22;17904;47.420;9.310;2022-09-25T14:19:02;12.20;99.90
31271;DHT22;17904;47.420;9.310;2022-09-25T14:21:51;12.20;99.90
31271;DHT22;17904;47.420;9.310;2022-09-25T14:24:25;12.20;99.90
31271;DHT22;17904;47.420;9.310;2022-09-25T14:26:56;12.20;99.90
31271;DHT22;17904;47.420;9.310;2022-09-25T14:29:30;12.30;99.90
31271;DHT22;17904;47.420;9.310;2022-09-25T14:37:58;12.50;99.90
31271;DHT22;17904;47.420;9.310;2022-09-25T14:40:35;12.60;99.90
31271;DHT22;17904;47.420;9.310;2022-09-25T14:48:28;12.80;99.90
31271;DHT22;17904;47.420;9.310;2022-09-25T14:51:01;12.80;99.90
31271;DHT22;17904;47.420;9.310;2022-09-25T14:53:33;12.80;99.90
31271;DHT22;17904;47.420;9.310;2022-09-25T14:56:02;12.80;99.90
31271;DHT22;17904;47.420;9.310;2022-09-25T14:58:31;12.70;99.90
31271;DHT22;17904;47.420;9.310;2022-09-25T15:01:09;12.70;99.90
31271;DHT22;17904;47.420;9.310;2022-09-25T15:03:42;12.60;99.90
31271;DHT22;17904;47.420;9.310;2022-09-25T15:06:09;12.60;99.90
31271;DHT22;17904;47.420;9.310;2022-09-25T15:08:41;12.60;99.90
31271;DHT22;17904;47.420;9.310;2022-09-25T15:11:14;12.50;99.90
31271;DHT22;17904;47.420;9.310;2022-09-25T15:13:42;12.50;99.90
31271;DHT22;17904;47.420;9.310;2022-09-25T15:16:17;12.50;99.90
31271;DHT22;17904;47.420;9.310;2022-09-25T15:19:15;12.50;99.90
31271;DHT22;17904;47.420;9.310;2022-09-25T15:21:43;12.50;99.90
31271;DHT22;17904;47.420;9.310;2022-09-25T15:24:17;12.50;99.90
31271;DHT22;17904;47.420;9.310;2022-09-25T15:26:53;12.40;99.90
31271;DHT22;17904;47.420;9.310;2022-09-25T15:29:23;12.40;99.90
31271;DHT22;17904;47.420;9.310;2022-09-25T15:31:51;12.40;99.90
31271;DHT22;17904;47.420;9.310;2022-09-25T15:34:24;12.40;99.90
31271;DHT22;17904;47.420;9.310;2022-09-25T15:36:53;12.30;99.90
31271;DHT22;17904;47.420;9.310;2022-09-25T15:39:23;12.30;99.90
31271;DHT22;17904;47.420;9.310;2022-09-25T15:41:51;12.20;99.90
31271;DHT22;17904;47.420;9.310;2022-09-25T15:44:23;12.20;99.90
31271;DHT22;17904;47.420;9.310;2022-09-25T15:46:52;12.10;99.90
31271;DHT22;17904;47.420;9.310;2022-09-25T15:49:29;12.10;99.90
31271;DHT22;17904;47.420;9.310;2022-09-25T15:52:03;12.10;99.90
31271;DHT22;17904;47.420;9.310;2022-09-25T15:54:44;12.00;99.90
31271;DHT22;17904;47.420;9.310;2022-09-25T15:57:22;12.00;99.90
31271;DHT22;17904;47.420;9.310;2022-09-25T15:59:51;11.90;99.90
31271;DHT22;17904;47.420;9.310;2022-09-25T16:02:58;11.90;99.90
31271;DHT22;17904;47.420;9.310;2022-09-25T16:05:47;11.80;99.90
31271;DHT22;17904;47.420;9.310;2022-09-25T16:08:32;11.80;99.90
31271;DHT22;17904;47.420;9.310;2022-09-25T16:11:22;11.70;99.90
31271;DHT22;17904;47.420;9.310;2022-09-25T16:16:57;11.70;99.90
31271;DHT22;17904;47.420;9.310;2022-09-25T16:19:28;11.70;99.90
31271;DHT22;17904;47.420;9.310;2022-09-25T16:21:58;11.70;99.90
31271;DHT22;17904;47.420;9.310;2022-09-25T16:24:27;11.70;99.90
31271;DHT22;17904;47.420;9.310;2022-09-25T16:26:59;11.70;99.90
31271;DHT22;17904;47.420;9.310;2022-09-25T16:32:01;11.60;99.90
31271;DHT22;17904;47.420;9.310;2022-09-25T16:34:33;11.60;99.90
31271;DHT22;17904;47.420;9.310;2022-09-25T16:37:04;11.60;99.90
31271;DHT22;17904;47.420;9.310;2022-09-25T16:39:32;11.60;99.90
31271;DHT22;17904;47.420;9.310;2022-09-25T16:45:03;11.60;99.90
31271;DHT22;17904;47.420;9.310;2022-09-25T16:47:41;11.50;99.90
31271;DHT22;17904;47.420;9.310;2022-09-25T16:50:17;11.50;99.90
31271;DHT22;17904;47.420;9.310;2022-09-25T16:52:46;11.50;99.90
31271;DHT22;17904;47.420;9.310;2022-09-25T16:55:21;11.50;99.90
31271;DHT22;17904;47.420;9.310;2022-09-25T16:57:52;11.50;99.90
31271;DHT22;17904;47.420;9.310;2022-09-25T17:00:25;11.40;99.90
31271;DHT22;17904;47.420;9.310;2022-09-25T17:02:52;11.40;99.90
31271;DHT22;17904;47.420;9.310;2022-09-25T17:05:22;11.40;99.90
31271;DHT22;17904;47.420;9.310;2022-09-25T17:07:55;11.40;99.90
31271;DHT22;17904;47.420;9.310;2022-09-25T17:10:28;11.40;99.90
31271;DHT22;17904;47.420;9.310;2022-09-25T17:12:57;11.30;99.90
31271;DHT22;17904;47.420;9.310;2022-09-25T17:15:32;11.30;99.90
31271;DHT22;17904;47.420;9.310;2022-09-25T17:17:59;11.30;99.90
31271;DHT22;17904;47.420;9.310;2022-09-25T17:20:29;11.30;99.90
31271;DHT22;17904;47.420;9.310;2022-09-25T17:22:59;11.20;99.90
31271;DHT22;17904;47.420;9.310;2022-09-25T17:25:43;11.20;99.90
31271;DHT22;17904;47.420;9.310;2022-09-25T17:28:11;11.20;99.90
31271;DHT22;17904;47.420;9.310;2022-09-25T17:30:40;11.20;99.90
31271;DHT22;17904;47.420;9.310;2022-09-25T17:33:18;11.10;99.90
31271;DHT22;17904;47.420;9.310;2022-09-25T17:38:18;11.10;99.90
31271;DHT22;17904;47.420;9.310;2022-09-25T17:40:46;11.00;99.90
31271;DHT22;17904;47.420;9.310;2022-09-25T17:43:14;11.00;99.90
31271;DHT22;17904;47.420;9.310;2022-09-25T17:45:53;11.00;99.90
31271;DHT22;17904;47.420;9.310;2022-09-25T17:48:23;10.90;99.90
31271;DHT22;17904;47.420;9.310;2022-09-25T17:51:03;10.90;99.90
31271;DHT22;17904;47.420;9.310;2022-09-25T17:53:31;10.90;99.90
31271;DHT22;17904;47.420;9.310;2022-09-25T17:56:00;10.90;99.90
31271;DHT22;17904;47.420;9.310;2022-09-25T17:58:28;10.90;99.90
31271;DHT22;17904;47.420;9.310;2022-09-25T18:00:57;10.90;99.90
31271;DHT22;17904;47.420;9.310;2022-09-25T18:03:25;10.80;99.90
31271;DHT22;17904;47.420;9.310;2022-09-25T18:05:52;10.80;99.90
31271;DHT22;17904;47.420;9.310;2022-09-25T18:08:20;10.80;99.90
31271;DHT22;17904;47.420;9.310;2022-09-25T18:10:47;10.80;99.90
31271;DHT22;17904;47.420;9.310;2022-09-25T18:13:17;10.70;99.90
31271;DHT22;17904;47.420;9.310;2022-09-25T18:15:50;10.70;99.90
31271;DHT22;17904;47.420;9.310;2022-09-25T18:18:19;10.70;99.90
31271;DHT22;17904;47.420;9.310;2022-09-25T18:20:46;10.70;99.90
31271;DHT22;17904;47.420;9.310;2022-09-25T18:23:35;10.70;99.90
31271;DHT22;17904;47.420;9.310;2022-09-25T18:26:06;10.70;99.90
31271;DHT22;17904;47.420;9.310;2022-09-25T18:28:33;10.60;99.90
31271;DHT22;17904;47.420;9.310;2022-09-25T18:31:00;10.60;99.90
31271;DHT22;17904;47.420;9.310;2022-09-25T18:33:27;10.60;99.90
31271;DHT22;17904;47.420;9.310;2022-09-25T18:35:54;10.60;99.90
31271;DHT22;17904;47.420;9.310;2022-09-25T18:38:22;10.60;99.90
31271;DHT22;17904;47.420;9.310;2022-09-25T18:40:50;10.60;99.90
31271;DHT22;17904;47.420;9.310;2022-09-25T18:43:17;10.60;99.90
31271;DHT22;17904;47.420;9.310;2022-09-25T18:45:48;10.60;99.90
31271;DHT22;17904;47.420;9.310;2022-09-25T18:48:17;10.50;99.90
31271;DHT22;17904;47.420;9.310;2022-09-25T18:50:46;10.50;99.90